Time;durP1;ratioP1;P1;durP2;ratioP2;P2;SDS_P1;SDS_P2;PMS_P1;PMS_P2;Temp;Humidity;BMP_temperature;BMP_pressure;BME280_temperature;BME280_humidity;BME280_pressure;Samples;Min_cycle;Max_cycle;Signal;HPM_P1;HPM_P2
2023/03/04 00:00:41;;;;;;;26.40;15.40;;;;;;;-128.00;-1.00;-1.00;103098;1257;1012095;-46
2023/03/04 00:03:13;;;;;;;23.20;14.50;;;;;;;-128.00;-1.00;-1.00;102527;1259;1012315;-46
2023/03/04 00:05:41;;;;;;;24.40;14.20;;;;;;;-128.00;-1.00;-1.00;102477;1260;1010220;-45
2023/03/04 00:08:09;;;;;;;26.60;13.80;;;;;;;-128.00;-1.00;-1.00;102592;1258;1003624;-45
2023/03/04 00:10:37;;;;;;;22.70;14.10;;;;;;;-128.00;-1.00;-1.00;102442;1259;1002622;-43
2023/03/04 00:13:06;;;;;;;25.00;13.70;;;;;;;-128.00;-1.00;-1.00;102609;1260;1012376;-48
2023/03/04 00:15:35;;;;;;;27.20;14.00;;;;;;;-128.00;-1.00;-1.00;102590;1259;1012594;-48
2023/03/04 00:18:08;;;;;;;26.30;15.70;;;;;;;-128.00;-1.00;-1.00;102335;1257;1010273;-45
2023/03/04 00:20:36;;;;;;;22.10;13.20;;;;;;;-128.00;-1.00;-1.00;102900;1259;1011090;-44
2023/03/04 00:23:04;;;;;;;27.90;16.60;;;;;;;-128.00;-1.00;-1.00;102347;1257;1002734;-47
2023/03/04 00:25:32;;;;;;;26.90;14.90;;;;;;;-128.00;-1.00;-1.00;102481;1259;1012183;-45
2023/03/04 00:28:00;;;;;;;24.70;14.60;;;;;;;-128.00;-1.00;-1.00;102774;1256;1014369;-45
2023/03/04 00:30:33;;;;;;;26.40;14.70;;;;;;;-128.00;-1.00;-1.00;102419;1259;1009773;-46
2023/03/04 00:33:02;;;;;;;23.40;13.50;;;;;;;-128.00;-1.00;-1.00;102598;1257;1011754;-43
2023/03/04 00:35:30;;;;;;;24.70;13.90;;;;;;;-128.00;-1.00;-1.00;102344;1257;1003941;-44
2023/03/04 00:37:59;;;;;;;28.00;14.20;;;;;;;-128.00;-1.00;-1.00;102378;1259;1013346;-46
2023/03/04 00:40:27;;;;;;;25.70;14.80;;;;;;;-128.00;-1.00;-1.00;102377;1259;1002926;-45
2023/03/04 00:42:56;;;;;;;19.40;12.70;;;;;;;-128.00;-1.00;-1.00;102612;1257;1010948;-44
2023/03/04 00:45:24;;;;;;;27.20;13.50;;;;;;;-128.00;-1.00;-1.00;102392;1260;1002680;-44
2023/03/04 00:47:52;;;;;;;24.80;14.80;;;;;;;-128.00;-1.00;-1.00;102190;1261;1013631;-43
2023/03/04 00:50:20;;;;;;;23.10;13.00;;;;;;;-128.00;-1.00;-1.00;102226;1260;1015866;-47
2023/03/04 00:52:48;;;;;;;20.40;12.10;;;;;;;-128.00;-1.00;-1.00;102392;1257;1002945;-47
2023/03/04 00:55:16;;;;;;;21.90;12.30;;;;;;;-128.00;-1.00;-1.00;102616;1258;1003042;-47
2023/03/04 00:57:45;;;;;;;25.00;12.70;;;;;;;-128.00;-1.00;-1.00;102785;1259;1011563;-46
2023/03/04 01:00:17;;;;;;;21.70;12.60;;;;;;;-128.00;-1.00;-1.00;102185;1260;1012721;-44
2023/03/04 01:02:46;;;;;;;25.00;12.20;;;;;;;-128.00;-1.00;-1.00;102712;1257;1012307;-48
2023/03/04 01:05:15;;;;;;;22.50;12.70;;;;;;;-128.00;-1.00;-1.00;103120;1257;1012383;-45
2023/03/04 01:07:43;;;;;;;23.20;11.70;;;;;;;-128.00;-1.00;-1.00;102542;1257;1002165;-47
2023/03/04 01:10:15;;;;;;;22.90;12.30;;;;;;;-128.00;-1.00;-1.00;102451;1257;1010721;-46
2023/03/04 01:12:44;;;;;;;25.40;13.40;;;;;;;-128.00;-1.00;-1.00;102102;1260;1013523;-47
2023/03/04 01:15:12;;;;;;;18.60;11.20;;;;;;;-128.00;-1.00;-1.00;102540;1256;1003359;-43
2023/03/04 01:17:41;;;;;;;22.00;12.50;;;;;;;-128.00;-1.00;-1.00;102367;1256;1016172;-44
2023/03/04 01:20:11;;;;;;;22.50;12.50;;;;;;;-128.00;-1.00;-1.00;103240;1257;1009987;-46
2023/03/04 01:22:39;;;;;;;24.00;13.70;;;;;;;-128.00;-1.00;-1.00;102272;1259;1010655;-46
2023/03/04 01:25:07;;;;;;;23.70;14.10;;;;;;;-128.00;-1.00;-1.00;102395;1256;1002717;-46
2023/03/04 01:27:36;;;;;;;24.30;14.20;;;;;;;-128.00;-1.00;-1.00;102739;1259;1013230;-44
2023/03/04 01:30:05;;;;;;;23.70;13.10;;;;;;;-128.00;-1.00;-1.00;102278;1257;1013352;-45
2023/03/04 01:32:33;;;;;;;24.50;14.10;;;;;;;-128.00;-1.00;-1.00;102514;1260;1010447;-43
2023/03/04 01:35:01;;;;;;;25.70;14.50;;;;;;;-128.00;-1.00;-1.00;102389;1259;1002447;-44
2023/03/04 01:37:30;;;;;;;23.90;14.30;;;;;;;-128.00;-1.00;-1.00;102313;1257;1018397;-46
2023/03/04 01:39:58;;;;;;;28.30;15.50;;;;;;;-128.00;-1.00;-1.00;102297;1259;1002223;-44
2023/03/04 01:42:26;;;;;;;24.70;14.80;;;;;;;-128.00;-1.00;-1.00;102550;1260;1003030;-45
2023/03/04 01:44:54;;;;;;;29.20;14.60;;;;;;;-128.00;-1.00;-1.00;102111;1257;1012619;-46
2023/03/04 01:47:28;;;;;;;29.90;16.70;;;;;;;-128.00;-1.00;-1.00;102378;1257;1011101;-44
2023/03/04 01:49:56;;;;;;;29.10;14.70;;;;;;;-128.00;-1.00;-1.00;103649;1259;1012332;-46
2023/03/04 01:52:24;;;;;;;25.00;14.50;;;;;;;-128.00;-1.00;-1.00;102319;1257;1012689;-48
2023/03/04 01:54:53;;;;;;;28.00;15.70;;;;;;;-128.00;-1.00;-1.00;102374;1260;1012719;-44
2023/03/04 01:57:23;;;;;;;29.00;16.50;;;;;;;-128.00;-1.00;-1.00;102457;1257;1010020;-43
2023/03/04 02:00:44;;;;;;;32.00;16.50;;;;;;;-128.00;-1.00;-1.00;102362;1260;1011365;-45
2023/03/04 02:03:14;;;;;;;27.10;15.40;;;;;;;-128.00;-1.00;-1.00;102129;1256;1013421;-46
2023/03/04 02:05:45;;;;;;;28.50;17.30;;;;;;;-128.00;-1.00;-1.00;102897;1260;1012566;-44
2023/03/04 02:08:13;;;;;;;30.10;16.20;;;;;;;-128.00;-1.00;-1.00;103051;1256;1014157;-43
2023/03/04 02:10:43;;;;;;;29.30;17.60;;;;;;;-128.00;-1.00;-1.00;102265;1256;1013252;-46
2023/03/04 02:13:11;;;;;;;25.20;15.60;;;;;;;-128.00;-1.00;-1.00;102607;1260;1002941;-43
2023/03/04 02:15:40;;;;;;;28.60;15.50;;;;;;;-128.00;-1.00;-1.00;102327;1259;1003257;-47
2023/03/04 02:18:19;;;;;;;37.60;19.40;;;;;;;-128.00;-1.00;-1.00;102638;1257;1012172;-48
2023/03/04 02:21:02;;;;;;;33.10;18.70;;;;;;;-128.00;-1.00;-1.00;102807;1256;1012588;-47
2023/03/04 02:23:37;;;;;;;29.60;17.20;;;;;;;-128.00;-1.00;-1.00;102486;1257;1010084;-47
2023/03/04 02:26:18;;;;;;;30.40;15.40;;;;;;;-128.00;-1.00;-1.00;102460;1262;1010388;-44
2023/03/04 02:28:48;;;;;;;32.20;16.90;;;;;;;-128.00;-1.00;-1.00;102355;1257;1014189;-48
2023/03/04 02:31:28;;;;;;;34.20;16.50;;;;;;;-128.00;-1.00;-1.00;102395;1259;1012822;-46
2023/03/04 02:33:58;;;;;;;28.50;16.50;;;;;;;-128.00;-1.00;-1.00;102537;1257;1013049;-44
2023/03/04 02:36:27;;;;;;;30.00;15.60;;;;;;;-128.00;-1.00;-1.00;102242;1260;1011001;-46
2023/03/04 02:39:00;;;;;;;35.50;17.30;;;;;;;-128.00;-1.00;-1.00;102642;1255;1011800;-46
2023/03/04 02:41:31;;;;;;;31.70;16.60;;;;;;;-128.00;-1.00;-1.00;102368;1257;1012782;-48
2023/03/04 02:44:02;;;;;;;34.50;18.80;;;;;;;-128.00;-1.00;-1.00;102382;1260;1012686;-48
2023/03/04 02:46:30;;;;;;;29.50;17.90;;;;;;;-128.00;-1.00;-1.00;102330;1260;1002971;-48
2023/03/04 02:48:58;;;;;;;35.90;18.80;;;;;;;-128.00;-1.00;-1.00;102401;1260;1003525;-49
2023/03/04 02:51:25;;;;;;;33.50;18.70;;;;;;;-128.00;-1.00;-1.00;102622;1256;1002953;-48
2023/03/04 02:53:54;;;;;;;31.90;18.20;;;;;;;-128.00;-1.00;-1.00;102705;1258;1012839;-46
2023/03/04 02:56:25;;;;;;;32.40;17.90;;;;;;;-128.00;-1.00;-1.00;102671;1256;1012925;-48
2023/03/04 02:58:53;;;;;;;30.80;16.70;;;;;;;-128.00;-1.00;-1.00;102368;1256;1013440;-46
2023/03/04 03:01:27;;;;;;;29.50;15.50;;;;;;;-128.00;-1.00;-1.00;102595;1259;1010128;-45
2023/03/04 03:03:56;;;;;;;33.40;15.20;;;;;;;-128.00;-1.00;-1.00;102478;1258;1011958;-44
2023/03/04 03:06:24;;;;;;;31.50;17.40;;;;;;;-128.00;-1.00;-1.00;102930;1259;1013112;-48
2023/03/04 03:08:56;;;;;;;30.70;16.40;;;;;;;-128.00;-1.00;-1.00;102593;1259;1012423;-46
2023/03/04 03:11:24;;;;;;;30.40;16.60;;;;;;;-128.00;-1.00;-1.00;102413;1257;1013800;-48
2023/03/04 03:13:54;;;;;;;26.20;16.00;;;;;;;-128.00;-1.00;-1.00;102676;1256;1011303;-46
2023/03/04 03:16:27;;;;;;;28.90;17.10;;;;;;;-128.00;-1.00;-1.00;102763;1258;1011665;-47
2023/03/04 03:18:55;;;;;;;36.30;18.30;;;;;;;-128.00;-1.00;-1.00;102940;1256;1013044;-46
2023/03/04 03:21:24;;;;;;;36.50;19.40;;;;;;;-128.00;-1.00;-1.00;102191;1257;1012445;-46
2023/03/04 03:23:53;;;;;;;32.30;17.90;;;;;;;-128.00;-1.00;-1.00;103196;1260;1013176;-47
2023/03/04 03:26:21;;;;;;;34.80;19.70;;;;;;;-128.00;-1.00;-1.00;102344;1254;1002733;-48
2023/03/04 03:28:49;;;;;;;31.30;17.90;;;;;;;-128.00;-1.00;-1.00;102422;1257;1011491;-48
2023/03/04 03:31:18;;;;;;;32.70;17.60;;;;;;;-128.00;-1.00;-1.00;102235;1260;1013005;-46
2023/03/04 03:33:48;;;;;;;33.00;15.80;;;;;;;-128.00;-1.00;-1.00;102392;1257;1012563;-46
2023/03/04 03:36:16;;;;;;;30.20;16.40;;;;;;;-128.00;-1.00;-1.00;102545;1259;1012836;-47
2023/03/04 03:38:44;;;;;;;32.10;16.60;;;;;;;-128.00;-1.00;-1.00;103313;1256;1002153;-43
2023/03/04 03:41:12;;;;;;;40.70;18.10;;;;;;;-128.00;-1.00;-1.00;103176;1256;1002890;-48
2023/03/04 03:43:40;;;;;;;33.70;16.30;;;;;;;-128.00;-1.00;-1.00;102646;1253;1003025;-48
2023/03/04 03:46:08;;;;;;;27.10;15.80;;;;;;;-128.00;-1.00;-1.00;102978;1256;1002783;-48
2023/03/04 03:48:37;;;;;;;33.00;18.10;;;;;;;-128.00;-1.00;-1.00;103293;1254;1012867;-47
2023/03/04 03:51:07;;;;;;;31.90;17.80;;;;;;;-128.00;-1.00;-1.00;102546;1256;1010510;-47
2023/03/04 03:53:35;;;;;;;33.60;19.30;;;;;;;-128.00;-1.00;-1.00;102362;1256;1011240;-46
2023/03/04 03:56:03;;;;;;;35.10;17.60;;;;;;;-128.00;-1.00;-1.00;102632;1256;1003286;-47
2023/03/04 03:58:32;;;;;;;39.60;20.50;;;;;;;-128.00;-1.00;-1.00;103246;1254;1012588;-49
2023/03/04 04:01:00;;;;;;;35.90;19.20;;;;;;;-128.00;-1.00;-1.00;102875;1256;1004002;-47
2023/03/04 04:03:28;;;;;;;32.90;17.00;;;;;;;-128.00;-1.00;-1.00;102606;1256;1002480;-47
2023/03/04 04:05:57;;;;;;;29.70;16.60;;;;;;;-128.00;-1.00;-1.00;102512;1253;1010931;-47
2023/03/04 04:09:59;;;;;;;27.00;15.60;;;;;;;;;;102265;1293;601238;-46
2023/03/04 04:12:27;;;;;;;32.50;16.60;;;;;;;;;;104237;1268;58960;-46
2023/03/04 04:14:59;;;;;;;26.90;14.70;;;;;;;;;;105029;1267;59193;-46
2023/03/04 04:17:27;;;;;;;32.10;17.60;;;;;;;;;;104387;1269;62303;-47
2023/03/04 04:19:55;;;;;;;26.80;15.60;;;;;;;;;;104433;1269;59043;-47
2023/03/04 04:22:23;;;;;;;29.40;15.90;;;;;;;;;;104299;1270;60566;-46
2023/03/04 04:24:51;;;;;;;31.50;15.80;;;;;;;;;;104258;1266;182625;-47
2023/03/04 04:27:21;;;;;;;31.20;16.70;;;;;;;;;;104607;1266;59022;-47
2023/03/04 04:29:49;;;;;;;33.10;17.60;;;;;;;;;;104627;1268;60260;-48
2023/03/04 04:32:22;;;;;;;32.20;15.60;;;;;;;;;;104523;1266;59062;-46
2023/03/04 04:34:50;;;;;;;26.00;15.10;;;;;;;;;;104869;1267;60824;-48
2023/03/04 04:37:21;;;;;;;31.20;16.60;;;;;;;;;;104531;1264;59708;-45
2023/03/04 04:39:50;;;;;;;26.00;14.40;;;;;;;;;;104602;1266;59614;-46
2023/03/04 04:42:19;;;;;;;26.30;14.60;;;;;;;;;;104470;1266;61229;-46
2023/03/04 04:44:46;;;;;;;26.00;14.60;;;;;;;;;;104515;1266;60003;-45
2023/03/04 04:47:14;;;;;;;28.10;16.00;;;;;;;;;;104890;1270;60660;-48
2023/03/04 04:49:42;;;;;;;29.40;17.30;;;;;;;;;;104810;1268;60015;-47
2023/03/04 04:52:10;;;;;;;25.90;14.50;;;;;;;;;;104661;1263;59515;-44
2023/03/04 04:54:38;;;;;;;29.40;16.30;;;;;;;;;;104487;1269;62180;-46
2023/03/04 04:57:06;;;;;;;31.10;16.70;;;;;;;;;;104882;1268;59608;-45
2023/03/04 04:59:34;;;;;;;24.60;13.00;;;;;;;;;;104511;1269;59839;-48
2023/03/04 05:02:04;;;;;;;27.80;13.90;;;;;;;;;;104408;1263;59740;-45
2023/03/04 05:04:32;;;;;;;26.00;13.70;;;;;;;;;;104607;1269;59656;-46
2023/03/04 05:06:59;;;;;;;28.60;13.40;;;;;;;;;;104462;1269;61485;-43
2023/03/04 05:09:28;;;;;;;30.80;14.40;;;;;;;;;;104496;1268;59509;-50
2023/03/04 05:11:56;;;;;;;25.60;13.60;;;;;;;;;;104461;1267;60795;-46
2023/03/04 05:14:25;;;;;;;24.70;12.90;;;;;;;;;;104462;1264;60538;-44
2023/03/04 05:16:54;;;;;;;30.20;15.10;;;;;;;;;;105121;1266;59542;-45
2023/03/04 05:19:21;;;;;;;31.20;16.10;;;;;;;;;;104609;1268;61040;-44
2023/03/04 05:21:49;;;;;;;27.70;15.20;;;;;;;;;;104600;1269;61488;-44
2023/03/04 05:24:17;;;;;;;27.80;13.90;;;;;;;;;;104405;1272;60768;-45
2023/03/04 05:26:47;;;;;;;29.70;14.60;;;;;;;;;;104500;1269;59732;-44
2023/03/04 05:29:15;;;;;;;30.60;14.00;;;;;;;;;;104393;1264;59624;-46
2023/03/04 05:31:43;;;;;;;30.40;14.50;;;;;;;;;;104948;1269;61047;-45
2023/03/04 05:34:11;;;;;;;24.30;11.40;;;;;;;;;;104368;1270;59646;-44
2023/03/04 05:36:39;;;;;;;28.20;14.10;;;;;;;;;;104285;1264;60716;-46
2023/03/04 05:39:07;;;;;;;30.40;14.40;;;;;;;;;;104386;1270;59647;-49
2023/03/04 05:41:35;;;;;;;34.30;15.20;;;;;;;;;;104415;1268;59631;-46
2023/03/04 05:44:03;;;;;;;27.70;14.20;;;;;;;;;;104510;1270;61385;-47
2023/03/04 05:46:31;;;;;;;29.10;13.60;;;;;;;;;;104225;1266;59630;-46
2023/03/04 05:49:00;;;;;;;23.00;12.80;;;;;;;;;;105107;1267;60857;-48
2023/03/04 05:51:29;;;;;;;25.60;12.50;;;;;;;;;;104537;1268;59742;-49
2023/03/04 05:53:57;;;;;;;29.10;13.80;;;;;;;;;;104626;1269;59685;-49
2023/03/04 05:56:25;;;;;;;24.50;12.30;;;;;;;;;;104511;1267;61385;-48
2023/03/04 05:58:55;;;;;;;26.20;12.90;;;;;;;;;;104762;1269;59532;-49
2023/03/04 06:01:25;;;;;;;25.80;12.80;;;;;;;;;;104651;1265;60468;-48
2023/03/04 06:03:54;;;;;;;23.50;12.30;;;;;;;;;;104882;1264;59612;-49
2023/03/04 06:06:22;;;;;;;26.10;13.90;;;;;;;;;;105090;1267;59745;-49
2023/03/04 06:08:50;;;;;;;30.80;13.60;;;;;;;;;;104761;1264;61341;-50
2023/03/04 06:11:18;;;;;;;28.80;13.70;;;;;;;;;;104575;1261;59758;-48
2023/03/04 06:13:46;;;;;;;26.50;13.20;;;;;;;;;;104636;1264;60642;-50
2023/03/04 06:16:17;;;;;;;28.50;13.90;;;;;;;;;;104595;1270;59660;-49
2023/03/04 06:18:45;;;;;;;25.90;12.70;;;;;;;;;;104475;1260;59652;-47
2023/03/04 06:21:13;;;;;;;23.90;12.50;;;;;;;;;;104606;1260;61319;-48
2023/03/04 06:23:41;;;;;;;26.00;12.50;;;;;;;;;;105029;1264;58974;-48
2023/03/04 06:26:14;;;;;;;25.70;13.80;;;;;;;;;;104614;1266;60286;-46
2023/03/04 06:28:42;;;;;;;24.50;12.50;;;;;;;;;;105476;1261;59547;-46
2023/03/04 06:31:10;;;;;;;26.80;13.30;;;;;;;;;;104726;1264;59652;-47
2023/03/04 06:33:39;;;;;;;29.60;15.30;;;;;;;;;;104838;1259;61221;-48
2023/03/04 06:36:07;;;;;;;28.30;16.00;;;;;;;;;;104894;1267;59681;-48
2023/03/04 06:38:35;;;;;;;27.10;13.80;;;;;;;;;;104737;1265;60759;-48
2023/03/04 06:41:07;;;;;;;28.70;14.90;;;;;;;;;;104591;1261;59644;-47
2023/03/04 06:43:36;;;;;;;30.40;15.10;;;;;;;;;;104733;1263;59710;-49
2023/03/04 06:46:05;;;;;;;29.50;15.10;;;;;;;;;;105291;1266;61369;-47
2023/03/04 06:48:33;;;;;;;30.80;16.10;;;;;;;;;;105226;1264;59537;-46
2023/03/04 06:51:05;;;;;;;26.90;16.40;;;;;;;;;;104619;1260;60740;-48
2023/03/04 06:53:34;;;;;;;30.90;16.40;;;;;;;;;;104651;1266;59769;-48
2023/03/04 06:56:02;;;;;;;33.40;17.90;;;;;;;;;;104671;1264;59576;-48
2023/03/04 06:58:29;;;;;;;36.50;17.10;;;;;;;;;;104312;1261;61347;-49
2023/03/04 07:01:07;;;;;;;29.40;15.50;;;;;;;;;;104641;1264;59637;-49
2023/03/04 07:03:36;;;;;;;33.00;18.20;;;;;;;;;;104672;1263;60793;-50
2023/03/04 07:06:04;;;;;;;31.40;17.00;;;;;;;;;;104636;1264;59644;-49
2023/03/04 07:08:36;;;;;;;32.30;16.60;;;;;;;;;;108679;1260;57437;-48
2023/03/04 07:11:05;;;;;;;33.90;16.10;;;;;;;;;;105689;1261;60215;-50
2023/03/04 07:13:34;;;;;;;35.00;18.50;;;;;;;;;;104602;1260;59619;-47
2023/03/04 07:16:05;;;;;;;35.20;18.00;;;;;;;;;;106484;1260;61275;-49
2023/03/04 07:18:34;;;;;;;33.60;18.60;;;;;;;;;;104918;1260;59644;-49
2023/03/04 07:21:04;;;;;;;35.10;19.70;;;;;;;;;;104587;1260;59960;-49
2023/03/04 07:23:32;;;;;;;37.30;20.90;;;;;;;;;;105460;1261;60097;-48
2023/03/04 07:26:00;;;;;;;39.10;19.50;;;;;;;;;;104780;1265;59753;-48
2023/03/04 07:28:28;;;;;;;36.70;19.50;;;;;;;;;;108008;1261;60955;-50
2023/03/04 07:30:56;;;;;;;29.60;16.60;;;;;;;;;;104528;1262;59826;-50
2023/03/04 07:33:27;;;;;;;32.90;17.40;;;;;;;;;;104506;1260;59581;-48
2023/03/04 07:35:59;;;;;;;42.10;20.80;;;;;;;;;;104348;1260;61370;-47
2023/03/04 07:38:26;;;;;;;39.20;21.00;;;;;;;;;;107261;1260;57539;-49
2023/03/04 07:40:55;;;;;;;40.60;21.40;;;;;;;;;;104644;1264;59519;-49
2023/03/04 07:43:23;;;;;;;37.30;20.40;;;;;;;;;;105184;1264;59735;-49
2023/03/04 07:45:51;;;;;;;38.50;21.60;;;;;;;;;;104329;1261;59646;-50
2023/03/04 07:48:20;;;;;;;38.60;20.80;;;;;;;;;;104784;1260;61116;-50
2023/03/04 07:50:48;;;;;;;37.90;20.30;;;;;;;;;;105608;1260;59468;-49
2023/03/04 07:53:17;;;;;;;35.50;18.40;;;;;;;;;;103935;1260;60570;-48
2023/03/04 07:55:46;;;;;;;36.60;18.80;;;;;;;;;;104188;1264;59609;-49
2023/03/04 07:58:18;;;;;;;34.50;19.60;;;;;;;;;;104293;1260;59724;-50
2023/03/04 08:00:46;;;;;;;39.20;21.20;;;;;;;;;;105315;1260;61893;-50
2023/03/04 08:03:15;;;;;;;38.40;20.60;;;;;;;;;;104744;1260;59502;-49
2023/03/04 08:05:44;;;;;;;35.40;20.30;;;;;;;;;;108712;1260;60436;-50
2023/03/04 08:08:12;;;;;;;35.30;19.40;;;;;;;;;;107510;1260;59621;-48
2023/03/04 08:10:42;;;;;;;36.40;19.00;;;;;;;;;;104579;1264;59648;-47
2023/03/04 08:13:10;;;;;;;37.80;19.50;;;;;;;;;;105097;1261;61397;-49
2023/03/04 08:15:39;;;;;;;35.00;19.60;;;;;;;;;;105086;1264;59608;-50
2023/03/04 08:18:09;;;;;;;34.70;18.50;;;;;;;;;;105066;1260;61383;-48
2023/03/04 08:20:40;;;;;;;34.60;19.50;;;;;;;;;;105105;1256;60466;-48
2023/03/04 08:23:09;;;;;;;32.80;15.70;;;;;;;;;;105220;1257;60600;-48
2023/03/04 08:25:40;;;;;;;30.00;16.20;;;;;;;;;;104989;1257;61830;-49
2023/03/04 08:28:08;;;;;;;32.40;17.80;;;;;;;;;;105174;1257;60514;-49
2023/03/04 08:30:37;;;;;;;34.10;18.80;;;;;;;;;;104834;1260;62015;-49
2023/03/04 08:33:06;;;;;;;32.20;17.80;;;;;;;;;;105228;1256;60444;-47
2023/03/04 08:35:37;;;;;;;32.40;18.20;;;;;;;;;;105638;1260;60297;-49
2023/03/04 08:38:11;;;;;;;31.90;18.60;;;;;;;;;;105344;1257;63553;-49
2023/03/04 08:40:38;;;;;;;37.40;19.10;;;;;;;;;;104788;1257;60341;-50
2023/03/04 08:43:11;;;;;;;30.10;17.90;;;;;;;;;;104984;1260;61037;-51
2023/03/04 08:45:39;;;;;;;31.20;17.20;;;;;;;;;;105327;1259;60540;-49
2023/03/04 08:48:07;;;;;;;32.60;17.30;;;;;;;;;;105032;1257;60705;-50
2023/03/04 08:50:36;;;;;;;32.50;17.90;;;;;;;;;;104797;1260;62166;-49
2023/03/04 08:53:04;;;;;;;36.40;17.30;;;;;;;;;;109005;1256;58909;-48
2023/03/04 08:55:32;;;;;;;34.90;17.70;;;;;;;;;;105879;1256;60907;-48
2023/03/04 08:58:00;;;;;;;30.30;16.30;;;;;;;;;;105004;1257;60434;-49
2023/03/04 09:00:28;;;;;;;30.30;15.50;;;;;;;;;;104893;1260;60423;-48
2023/03/04 09:03:16;;;;;;;27.70;15.20;;;;;;;;;;104960;1256;63517;-49
2023/03/04 09:05:46;;;;;;;25.40;14.80;;;;;;;;;;104852;1256;60438;-46
2023/03/04 09:08:14;;;;;;;37.90;19.00;;;;;;;;;;104752;1260;60737;-49
2023/03/04 09:10:42;;;;;;;28.40;15.70;;;;;;;;;;105314;1261;60534;-49
2023/03/04 09:13:15;;;;;;;32.10;17.00;;;;;;;;;;105020;1257;60943;-50
2023/03/04 09:15:45;;;;;;;30.30;16.60;;;;;;;;;;104899;1260;62111;-50
2023/03/04 09:18:13;;;;;;;26.40;15.20;;;;;;;;;;108888;1257;59241;-51
2023/03/04 09:20:43;;;;;;;30.00;15.30;;;;;;;;;;106268;1257;60414;-49
2023/03/04 09:23:12;;;;;;;28.50;16.70;;;;;;;;;;105093;1260;60447;-50
2023/03/04 09:25:40;;;;;;;31.50;17.10;;;;;;;;;;105153;1257;60444;-49
2023/03/04 09:28:09;;;;;;;34.70;17.50;;;;;;;;;;104978;1257;60934;-46
2023/03/04 09:30:37;;;;;;;29.50;16.30;;;;;;;;;;108914;1256;58641;-48
2023/03/04 09:33:05;;;;;;;27.80;15.90;;;;;;;;;;108978;1256;59782;-49
2023/03/04 09:35:33;;;;;;;28.80;16.70;;;;;;;;;;106326;1256;60335;-49
2023/03/04 09:38:01;;;;;;;29.50;17.10;;;;;;;;;;105042;1257;60297;-47
2023/03/04 09:40:29;;;;;;;32.00;17.00;;;;;;;;;;105128;1257;62129;-46
2023/03/04 09:43:02;;;;;;;31.80;15.60;;;;;;;;;;105110;1256;61826;-46
2023/03/04 09:45:52;;;;;;;28.50;14.90;;;;;;;;;;108881;1256;59586;-51
2023/03/04 09:48:20;;;;;;;29.30;17.10;;;;;;;;;;106805;1257;59052;-49
2023/03/04 09:51:02;;;;;;;33.80;16.40;;;;;;;;;;105056;1257;60511;-50
2023/03/04 09:53:37;;;;;;;29.10;16.20;;;;;;;;;;105828;1256;61910;-48
2023/03/04 09:56:04;;;;;;;29.30;16.60;;;;;;;;;;105102;1253;61523;-49
2023/03/04 09:58:43;;;;;;;27.70;14.90;;;;;;;;;;105732;1257;60733;-48
2023/03/04 10:01:18;;;;;;;25.40;13.60;;;;;;;;;;105208;1258;60575;-48
2023/03/04 10:03:49;;;;;;;33.20;16.70;;;;;;;;;;105493;1257;60289;-47
2023/03/04 10:06:18;;;;;;;33.00;17.50;;;;;;;;;;105302;1254;62996;-49
2023/03/04 10:08:46;;;;;;;29.40;16.20;;;;;;;;;;105347;1259;60441;-44
2023/03/04 10:11:20;;;;;;;29.90;17.40;;;;;;;;;;105253;1254;60758;-48
2023/03/04 10:13:52;;;;;;;34.10;17.40;;;;;;;;;;105744;1257;60428;-47
2023/03/04 10:16:21;;;;;;;32.20;18.20;;;;;;;;;;105291;1253;60318;-47
2023/03/04 10:18:57;;;;;;;31.00;17.30;;;;;;;;;;105375;1260;61910;-48
2023/03/04 10:21:28;;;;;;;31.40;14.80;;;;;;;;;;105596;1253;60451;-46
2023/03/04 10:23:56;;;;;;;29.90;15.80;;;;;;;;;;105159;1257;60481;-49
2023/03/04 10:26:28;;;;;;;29.70;16.30;;;;;;;;;;105793;1257;60475;-50
2023/03/04 10:28:56;;;;;;;32.80;18.60;;;;;;;;;;105033;1253;60818;-47
2023/03/04 10:31:36;;;;;;;29.40;16.00;;;;;;;;;;106185;1253;62565;-47
2023/03/04 10:34:04;;;;;;;30.00;16.10;;;;;;;;;;106648;1256;60463;-48
2023/03/04 10:36:54;;;;;;;29.90;16.70;;;;;;;;;;105230;1254;60475;-47
2023/03/04 10:39:25;;;;;;;21.50;12.90;;;;;;;;;;105279;1256;60599;-47
2023/03/04 10:42:12;;;;;;;20.50;12.40;;;;;;;;;;104974;1254;60366;-50
2023/03/04 10:44:50;;;;;;;24.20;13.50;;;;;;;;;;105254;1254;62089;-47
2023/03/04 10:47:18;;;;;;;22.80;13.40;;;;;;;;;;105250;1257;60507;-48
2023/03/04 10:49:54;;;;;;;21.00;13.10;;;;;;;;;;106492;1253;60650;-49
2023/03/04 10:52:25;;;;;;;21.40;12.20;;;;;;;;;;105166;1253;60357;-48
2023/03/04 10:54:54;;;;;;;19.40;12.70;;;;;;;;;;105041;1253;60450;-48
2023/03/04 10:57:23;;;;;;;26.40;12.70;;;;;;;;;;105995;1253;62273;-48
2023/03/04 10:59:55;;;;;;;18.20;12.00;;;;;;;;;;105001;1253;60405;-49
2023/03/04 11:02:30;;;;;;;19.40;10.70;;;;;;;;;;105044;1254;60572;-50
2023/03/04 11:05:05;;;;;;;22.40;12.10;;;;;;;;;;104886;1253;60425;-49
2023/03/04 11:07:41;;;;;;;16.70;10.90;;;;;;;;;;104815;1254;60346;-48
2023/03/04 11:10:34;;;;;;;20.00;11.30;;;;;;;;;;104845;1253;62429;-49
2023/03/04 11:13:10;;;;;;;15.50;9.70;;;;;;;;;;104703;1253;60393;-50
2023/03/04 11:15:53;;;;;;;19.70;10.60;;;;;;;;;;105154;1254;61307;-46
2023/03/04 11:18:30;;;;;;;18.50;11.60;;;;;;;;;;105282;1257;60450;-51
2023/03/04 11:20:58;;;;;;;18.60;11.60;;;;;;;;;;105283;1253;60408;-50
2023/03/04 11:23:34;;;;;;;18.40;10.50;;;;;;;;;;104979;1253;61231;-47
2023/03/04 11:26:04;;;;;;;16.30;9.80;;;;;;;;;;104540;1257;60409;-50
2023/03/04 11:28:36;;;;;;;19.50;10.30;;;;;;;;;;108871;1253;59409;-50
2023/03/04 11:31:14;;;;;;;17.70;11.40;;;;;;;;;;106944;1254;60716;-47
2023/03/04 11:33:46;;;;;;;19.50;11.40;;;;;;;;;;105821;1253;60293;-47
2023/03/04 11:36:20;;;;;;;19.60;11.30;;;;;;;;;;106779;1254;62161;-46
2023/03/04 11:38:49;;;;;;;15.50;10.00;;;;;;;;;;104984;1253;60351;-46
2023/03/04 11:41:30;;;;;;;16.70;10.80;;;;;;;;;;105174;1253;60709;-49
2023/03/04 11:43:59;;;;;;;16.10;10.50;;;;;;;;;;105177;1254;60597;-47
2023/03/04 11:46:42;;;;;;;15.30;9.10;;;;;;;;;;105145;1256;60653;-51
2023/03/04 11:49:16;;;;;;;18.10;11.10;;;;;;;;;;104870;1253;61464;-47
2023/03/04 11:51:50;;;;;;;14.80;10.10;;;;;;;;;;105038;1254;60531;-47
2023/03/04 11:54:18;;;;;;;18.20;10.70;;;;;;;;;;105037;1257;60670;-47
2023/03/04 11:56:48;;;;;;;14.40;9.00;;;;;;;;;;105783;1257;60542;-45
2023/03/04 11:59:25;;;;;;;18.10;10.10;;;;;;;;;;104888;1254;61714;-49
2023/03/04 12:02:09;;;;;;;16.70;9.40;;;;;;;;;;104861;1254;61349;-46
2023/03/04 12:04:47;;;;;;;15.30;9.90;;;;;;;;;;105354;1256;60348;-49
2023/03/04 12:07:28;;;;;;;17.40;10.80;;;;;;;;;;104975;1253;60808;-47
2023/03/04 12:10:05;;;;;;;16.70;9.70;;;;;;;;;;105185;1257;60460;-47
2023/03/04 12:12:47;;;;;;;14.00;8.40;;;;;;;;;;105480;1253;61053;-48
2023/03/04 12:15:18;;;;;;;13.00;9.00;;;;;;;;;;105452;1252;62309;-51
2023/03/04 12:17:56;;;;;;;16.80;10.50;;;;;;;;;;104923;1253;60394;-46
2023/03/04 12:20:30;;;;;;;19.10;10.80;;;;;;;;;;105029;1253;60558;-52
2023/03/04 12:23:04;;;;;;;17.90;9.50;;;;;;;;;;105151;1257;61024;-48
2023/03/04 12:25:33;;;;;;;;;;;;;;;;;;104747;1257;60551;-46
2023/03/04 12:28:14;;;;;;;18.10;10.00;;;;;;;;;;106397;1253;61967;-47
2023/03/04 12:30:42;;;;;;;16.00;9.40;;;;;;;;;;105467;1254;60453;-50
2023/03/04 12:33:17;;;;;;;14.10;9.60;;;;;;;;;;105173;1257;60966;-50
2023/03/04 12:35:45;;;;;;;14.90;9.20;;;;;;;;;;105024;1256;60402;-50
2023/03/04 12:38:15;;;;;;;16.60;9.70;;;;;;;;;;105114;1252;60402;-51
2023/03/04 12:40:57;;;;;;;17.50;10.60;;;;;;;;;;105141;1256;60953;-50
2023/03/04 12:43:40;;;;;;;15.00;9.10;;;;;;;;;;107223;1253;60771;-48
2023/03/04 12:46:24;;;;;;;18.10;9.50;;;;;;;;;;105308;1252;60457;-48
2023/03/04 12:49:01;;;;;;;19.40;8.90;;;;;;;;;;105074;1255;60527;-46
2023/03/04 12:51:34;;;;;;;19.10;11.30;;;;;;;;;;104854;1256;60313;-47
2023/03/04 12:54:02;;;;;;;14.30;9.80;;;;;;;;;;104963;1253;61810;-47
2023/03/04 12:56:36;;;;;;;17.30;10.50;;;;;;;;;;104967;1253;60379;-48
2023/03/04 12:59:04;;;;;;;17.60;10.90;;;;;;;;;;107075;1253;60783;-51
2023/03/04 13:01:35;;;;;;;18.80;9.60;;;;;;;;;;104654;1254;60360;-49
2023/03/04 13:04:15;;;;;;;20.10;10.80;;;;;;;;;;105433;1253;60652;-50
2023/03/04 13:06:56;;;;;;;18.90;10.10;;;;;;;;;;104881;1253;62357;-50
2023/03/04 13:09:37;;;;;;;17.80;11.40;;;;;;;;;;104919;1253;62172;-48
2023/03/04 13:12:35;;;;;;;20.20;11.90;;;;;;;;;;104738;1254;60953;-50
2023/03/04 13:15:06;;;;;;;18.70;11.10;;;;;;;;;;104736;1254;60549;-51
2023/03/04 13:17:36;;;;;;;23.30;12.10;;;;;;;;;;105069;1256;60313;-49